sensor_id;sensor_type;location;lat;lon;timestamp;pressure;altitude;pressure_sealevel;temperature;humidity
21520;BME280;10921;53.614;9.882;2023-08-30T00:01:07;100602.78;;;14.76;93.63
21520;BME280;10921;53.614;9.882;2023-08-30T00:03:35;100603.81;;;14.75;93.34
21520;BME280;10921;53.614;9.882;2023-08-30T00:06:06;100603.97;;;14.73;94.04
21520;BME280;10921;53.614;9.882;2023-08-30T00:08:33;100548.84;;;14.38;94.04
21520;BME280;10921;53.614;9.882;2023-08-30T00:11:00;100589.94;;;14.63;93.95
21520;BME280;10921;53.614;9.882;2023-08-30T00:13:31;100581.72;;;14.57;94.43
21520;BME280;10921;53.614;9.882;2023-08-30T00:16:02;100592.78;;;14.62;94.28
21520;BME280;10921;53.614;9.882;2023-08-30T00:18:29;100574.38;;;14.51;94.46
21520;BME280;10921;53.614;9.882;2023-08-30T00:20:56;100591.44;;;14.58;94.17
21520;BME280;10921;53.614;9.882;2023-08-30T00:23:23;100578.06;;;14.41;94.00
21520;BME280;10921;53.614;9.882;2023-08-30T00:25:50;100557.78;;;14.31;93.84
21520;BME280;10921;53.614;9.882;2023-08-30T00:28:16;100583.63;;;14.40;94.06
21520;BME280;10921;53.614;9.882;2023-08-30T00:30:43;100590.31;;;14.44;94.65
21520;BME280;10921;53.614;9.882;2023-08-30T00:33:09;100589.00;;;14.32;95.27
21520;BME280;10921;53.614;9.882;2023-08-30T00:35:36;100562.84;;;14.18;94.44
21520;BME280;10921;53.614;9.882;2023-08-30T00:38:02;100583.28;;;14.27;94.50
21520;BME280;10921;53.614;9.882;2023-08-30T00:40:43;100540.59;;;14.01;95.18
21520;BME280;10921;53.614;9.882;2023-08-30T00:43:10;100529.88;;;13.93;94.23
21520;BME280;10921;53.614;9.882;2023-08-30T00:45:38;100575.78;;;14.14;94.42
21520;BME280;10921;53.614;9.882;2023-08-30T00:48:06;100571.75;;;14.10;94.61
21520;BME280;10921;53.614;9.882;2023-08-30T00:50:34;100569.78;;;14.04;94.72
21520;BME280;10921;53.614;9.882;2023-08-30T00:53:00;100580.31;;;14.05;94.71
21520;BME280;10921;53.614;9.882;2023-08-30T00:55:34;100581.13;;;14.06;95.20
21520;BME280;10921;53.614;9.882;2023-08-30T00:58:01;100557.06;;;13.90;95.07
21520;BME280;10921;53.614;9.882;2023-08-30T01:00:29;100585.66;;;14.05;95.63
21520;BME280;10921;53.614;9.882;2023-08-30T01:02:57;100580.50;;;14.04;96.17
21520;BME280;10921;53.614;9.882;2023-08-30T01:05:24;100574.13;;;14.05;96.30
21520;BME280;10921;53.614;9.882;2023-08-30T01:07:51;100568.56;;;14.06;96.93
21520;BME280;10921;53.614;9.882;2023-08-30T01:10:24;100554.84;;;14.01;97.46
21520;BME280;10921;53.614;9.882;2023-08-30T01:13:05;100560.72;;;14.05;97.34
21520;BME280;10921;53.614;9.882;2023-08-30T01:15:34;100567.09;;;14.04;96.80
21520;BME280;10921;53.614;9.882;2023-08-30T01:18:02;100574.78;;;14.07;96.51
21520;BME280;10921;53.614;9.882;2023-08-30T01:20:34;100566.09;;;14.05;97.42
21520;BME280;10921;53.614;9.882;2023-08-30T01:23:06;100559.88;;;14.04;97.45
21520;BME280;10921;53.614;9.882;2023-08-30T01:26:06;100525.88;;;13.89;98.90
21520;BME280;10921;53.614;9.882;2023-08-30T01:28:37;100561.06;;;14.02;97.87
21520;BME280;10921;53.614;9.882;2023-08-30T01:31:04;100568.56;;;14.15;97.47
21520;BME280;10921;53.614;9.882;2023-08-30T01:33:33;100563.88;;;14.17;97.59
21520;BME280;10921;53.614;9.882;2023-08-30T01:36:00;100558.34;;;14.18;97.46
21520;BME280;10921;53.614;9.882;2023-08-30T01:38:28;100555.28;;;14.21;97.77
21520;BME280;10921;53.614;9.882;2023-08-30T01:40:57;100552.78;;;14.20;97.64
21520;BME280;10921;53.614;9.882;2023-08-30T01:43:27;100534.34;;;14.08;97.49
21520;BME280;10921;53.614;9.882;2023-08-30T01:45:57;100556.78;;;14.24;97.39
21520;BME280;10921;53.614;9.882;2023-08-30T01:48:26;100526.31;;;14.08;97.80
21520;BME280;10921;53.614;9.882;2023-08-30T01:50:54;100549.56;;;14.24;97.34
21520;BME280;10921;53.614;9.882;2023-08-30T01:53:25;100543.19;;;14.25;97.52
21520;BME280;10921;53.614;9.882;2023-08-30T01:55:52;100486.66;;;13.80;97.21
21520;BME280;10921;53.614;9.882;2023-08-30T01:58:19;100544.75;;;14.20;96.60
21520;BME280;10921;53.614;9.882;2023-08-30T02:00:46;100559.63;;;14.22;96.95
21520;BME280;10921;53.614;9.882;2023-08-30T02:03:14;100552.44;;;14.23;97.62
21520;BME280;10921;53.614;9.882;2023-08-30T02:05:52;100536.50;;;14.21;98.68
21520;BME280;10921;53.614;9.882;2023-08-30T02:08:26;100459.66;;;13.81;98.47
21520;BME280;10921;53.614;9.882;2023-08-30T02:10:56;100526.13;;;14.18;98.49
21520;BME280;10921;53.614;9.882;2023-08-30T02:13:26;100535.81;;;14.27;98.00
21520;BME280;10921;53.614;9.882;2023-08-30T02:15:55;100528.59;;;14.28;98.09
21520;BME280;10921;53.614;9.882;2023-08-30T02:18:25;100540.84;;;14.30;98.01
21520;BME280;10921;53.614;9.882;2023-08-30T02:20:52;100494.28;;;14.07;98.01
21520;BME280;10921;53.614;9.882;2023-08-30T02:23:18;100506.34;;;14.11;98.20
21520;BME280;10921;53.614;9.882;2023-08-30T02:25:46;100496.47;;;14.12;98.41
21520;BME280;10921;53.614;9.882;2023-08-30T02:28:12;100479.56;;;14.03;98.86
21520;BME280;10921;53.614;9.882;2023-08-30T02:30:38;100527.56;;;14.37;98.66
21520;BME280;10921;53.614;9.882;2023-08-30T02:33:05;100526.38;;;14.39;98.83
21520;BME280;10921;53.614;9.882;2023-08-30T02:35:31;100496.06;;;14.23;98.75
21520;BME280;10921;53.614;9.882;2023-08-30T02:37:58;100532.94;;;14.45;99.20
21520;BME280;10921;53.614;9.882;2023-08-30T02:40:24;100525.56;;;14.47;99.08
21520;BME280;10921;53.614;9.882;2023-08-30T02:42:51;100534.28;;;14.49;99.32
21520;BME280;10921;53.614;9.882;2023-08-30T02:45:17;100472.47;;;14.18;99.01
21520;BME280;10921;53.614;9.882;2023-08-30T02:47:44;100530.03;;;14.55;99.17
21520;BME280;10921;53.614;9.882;2023-08-30T02:50:11;100527.53;;;14.53;98.82
21520;BME280;10921;53.614;9.882;2023-08-30T02:52:37;100520.69;;;14.51;98.74
21520;BME280;10921;53.614;9.882;2023-08-30T02:55:04;100537.41;;;14.61;99.13
21520;BME280;10921;53.614;9.882;2023-08-30T02:57:31;100525.66;;;14.62;98.89
21520;BME280;10921;53.614;9.882;2023-08-30T02:59:57;100524.63;;;14.63;98.85
21520;BME280;10921;53.614;9.882;2023-08-30T03:02:24;100527.16;;;14.64;98.73
21520;BME280;10921;53.614;9.882;2023-08-30T03:04:51;100519.28;;;14.63;98.70
21520;BME280;10921;53.614;9.882;2023-08-30T03:07:17;100526.25;;;14.72;98.91
21520;BME280;10921;53.614;9.882;2023-08-30T03:09:44;100530.63;;;14.73;98.86
21520;BME280;10921;53.614;9.882;2023-08-30T03:12:11;100519.09;;;14.64;99.09
21520;BME280;10921;53.614;9.882;2023-08-30T03:14:37;100534.28;;;14.80;99.45
21520;BME280;10921;53.614;9.882;2023-08-30T03:17:04;100522.53;;;14.81;99.64
21520;BME280;10921;53.614;9.882;2023-08-30T03:19:30;100528.38;;;14.85;99.18
21520;BME280;10921;53.614;9.882;2023-08-30T03:21:57;100519.47;;;14.84;99.05
21520;BME280;10921;53.614;9.882;2023-08-30T03:24:24;100526.00;;;14.90;99.26
21520;BME280;10921;53.614;9.882;2023-08-30T03:26:50;100525.81;;;14.91;99.10
21520;BME280;10921;53.614;9.882;2023-08-30T03:29:17;100513.56;;;14.89;99.16
21520;BME280;10921;53.614;9.882;2023-08-30T03:31:43;100501.88;;;14.82;98.91
21520;BME280;10921;53.614;9.882;2023-08-30T03:34:10;100508.03;;;14.90;98.80
21520;BME280;10921;53.614;9.882;2023-08-30T03:36:37;100505.84;;;14.94;98.76
21520;BME280;10921;53.614;9.882;2023-08-30T03:39:03;100498.28;;;14.89;98.62
21520;BME280;10921;53.614;9.882;2023-08-30T03:41:30;100486.38;;;14.92;98.68
21520;BME280;10921;53.614;9.882;2023-08-30T03:43:56;100507.09;;;15.06;98.64
21520;BME280;10921;53.614;9.882;2023-08-30T03:46:23;100475.38;;;14.78;98.68
21520;BME280;10921;53.614;9.882;2023-08-30T03:48:49;100507.56;;;15.09;98.82
21520;BME280;10921;53.614;9.882;2023-08-30T03:51:17;100490.81;;;14.99;98.92
21520;BME280;10921;53.614;9.882;2023-08-30T03:53:44;100513.59;;;15.11;98.77
21520;BME280;10921;53.614;9.882;2023-08-30T03:56:11;100506.56;;;15.10;98.55
21520;BME280;10921;53.614;9.882;2023-08-30T03:58:37;100454.00;;;14.85;98.38
21520;BME280;10921;53.614;9.882;2023-08-30T04:01:04;100477.72;;;15.04;98.68
21520;BME280;10921;53.614;9.882;2023-08-30T04:03:33;100493.22;;;15.17;98.45
21520;BME280;10921;53.614;9.882;2023-08-30T04:05:59;100489.69;;;15.17;98.13
21520;BME280;10921;53.614;9.882;2023-08-30T04:08:26;100473.47;;;15.10;98.66
21520;BME280;10921;53.614;9.882;2023-08-30T04:10:53;100477.94;;;15.18;98.42
21520;BME280;10921;53.614;9.882;2023-08-30T04:13:20;100454.72;;;15.02;98.67
21520;BME280;10921;53.614;9.882;2023-08-30T04:15:47;100464.19;;;15.12;98.84
21520;BME280;10921;53.614;9.882;2023-08-30T04:18:14;100474.91;;;15.21;98.86
21520;BME280;10921;53.614;9.882;2023-08-30T04:20:44;100483.44;;;15.24;99.42
21520;BME280;10921;53.614;9.882;2023-08-30T04:23:11;100459.88;;;15.11;98.93
21520;BME280;10921;53.614;9.882;2023-08-30T04:25:38;100475.19;;;15.26;98.90
21520;BME280;10921;53.614;9.882;2023-08-30T04:28:05;100471.19;;;15.22;98.77
21520;BME280;10921;53.614;9.882;2023-08-30T04:30:32;100433.69;;;15.05;99.17
21520;BME280;10921;53.614;9.882;2023-08-30T04:33:00;100477.31;;;15.30;99.57
21520;BME280;10921;53.614;9.882;2023-08-30T04:35:30;100450.53;;;15.22;99.45
21520;BME280;10921;53.614;9.882;2023-08-30T04:37:58;100461.69;;;15.34;99.68
21520;BME280;10921;53.614;9.882;2023-08-30T04:40:24;100469.22;;;15.38;100.00
21520;BME280;10921;53.614;9.882;2023-08-30T04:42:52;100461.63;;;15.42;100.00
21520;BME280;10921;53.614;9.882;2023-08-30T04:45:19;100457.53;;;15.46;100.00
21520;BME280;10921;53.614;9.882;2023-08-30T04:47:46;100410.03;;;15.24;100.00
21520;BME280;10921;53.614;9.882;2023-08-30T04:50:12;100445.41;;;15.50;100.00
21520;BME280;10921;53.614;9.882;2023-08-30T04:52:39;100455.72;;;15.61;100.00
21520;BME280;10921;53.614;9.882;2023-08-30T04:55:06;100436.63;;;15.56;100.00
21520;BME280;10921;53.614;9.882;2023-08-30T04:57:32;100449.81;;;15.66;100.00
21520;BME280;10921;53.614;9.882;2023-08-30T04:59:59;100448.50;;;15.76;100.00
21520;BME280;10921;53.614;9.882;2023-08-30T05:02:27;100456.22;;;15.79;100.00
21520;BME280;10921;53.614;9.882;2023-08-30T05:04:53;100461.53;;;15.88;100.00
21520;BME280;10921;53.614;9.882;2023-08-30T05:07:20;100460.09;;;15.92;100.00
21520;BME280;10921;53.614;9.882;2023-08-30T05:09:46;100416.63;;;15.73;100.00
21520;BME280;10921;53.614;9.882;2023-08-30T05:12:13;100463.56;;;16.00;100.00
21520;BME280;10921;53.614;9.882;2023-08-30T05:14:39;100466.78;;;16.10;100.00
21520;BME280;10921;53.614;9.882;2023-08-30T05:17:07;100457.16;;;16.16;100.00
21520;BME280;10921;53.614;9.882;2023-08-30T05:19:33;100455.72;;;16.20;100.00
21520;BME280;10921;53.614;9.882;2023-08-30T05:22:00;100406.59;;;15.97;100.00
21520;BME280;10921;53.614;9.882;2023-08-30T05:24:26;100431.91;;;16.17;99.77
21520;BME280;10921;53.614;9.882;2023-08-30T05:26:54;100462.22;;;16.40;99.24
21520;BME280;10921;53.614;9.882;2023-08-30T05:29:21;100411.41;;;16.16;98.85
21520;BME280;10921;53.614;9.882;2023-08-30T05:31:47;100435.66;;;16.37;98.87
21520;BME280;10921;53.614;9.882;2023-08-30T05:34:14;100462.28;;;16.62;98.54
21520;BME280;10921;53.614;9.882;2023-08-30T05:36:40;100454.56;;;16.59;98.24
21520;BME280;10921;53.614;9.882;2023-08-30T05:39:07;100460.88;;;16.66;97.67
21520;BME280;10921;53.614;9.882;2023-08-30T05:41:33;100449.47;;;16.64;97.16
21520;BME280;10921;53.614;9.882;2023-08-30T05:44:00;100465.28;;;16.88;96.21
21520;BME280;10921;53.614;9.882;2023-08-30T05:46:26;100459.06;;;16.87;95.67
21520;BME280;10921;53.614;9.882;2023-08-30T05:48:53;100468.94;;;17.02;94.61
21520;BME280;10921;53.614;9.882;2023-08-30T05:51:21;100462.59;;;17.09;94.47
21520;BME280;10921;53.614;9.882;2023-08-30T05:53:47;100463.47;;;17.16;93.91
21520;BME280;10921;53.614;9.882;2023-08-30T05:56:14;100467.72;;;17.26;93.13
21520;BME280;10921;53.614;9.882;2023-08-30T05:58:40;100463.84;;;17.35;93.14
21520;BME280;10921;53.614;9.882;2023-08-30T06:01:07;100426.56;;;17.17;91.86
21520;BME280;10921;53.614;9.882;2023-08-30T06:03:34;100402.88;;;17.12;90.28
21520;BME280;10921;53.614;9.882;2023-08-30T06:06:01;100412.97;;;17.25;88.05
21520;BME280;10921;53.614;9.882;2023-08-30T06:08:28;100452.06;;;17.64;87.50
21520;BME280;10921;53.614;9.882;2023-08-30T06:10:54;100446.94;;;17.69;85.26
21520;BME280;10921;53.614;9.882;2023-08-30T06:13:21;100438.84;;;17.75;83.74
21520;BME280;10921;53.614;9.882;2023-08-30T06:15:51;100449.13;;;17.86;83.43
21520;BME280;10921;53.614;9.882;2023-08-30T06:18:18;100444.78;;;17.92;81.79
21520;BME280;10921;53.614;9.882;2023-08-30T06:20:46;100411.47;;;17.78;80.41
21520;BME280;10921;53.614;9.882;2023-08-30T06:23:13;100394.25;;;17.79;80.51
21520;BME280;10921;53.614;9.882;2023-08-30T06:25:40;100405.50;;;17.89;79.52
21520;BME280;10921;53.614;9.882;2023-08-30T06:28:07;100431.00;;;18.15;80.00
21520;BME280;10921;53.614;9.882;2023-08-30T06:30:34;100435.63;;;18.27;79.72
21520;BME280;10921;53.614;9.882;2023-08-30T06:33:01;100420.66;;;18.25;79.28
21520;BME280;10921;53.614;9.882;2023-08-30T06:35:27;100434.25;;;18.45;78.43
21520;BME280;10921;53.614;9.882;2023-08-30T06:37:54;100430.69;;;18.51;78.04
21520;BME280;10921;53.614;9.882;2023-08-30T06:40:22;100400.34;;;18.42;76.51
21520;BME280;10921;53.614;9.882;2023-08-30T06:42:48;100416.34;;;18.50;75.88
21520;BME280;10921;53.614;9.882;2023-08-30T06:45:15;100394.97;;;18.55;75.09
21520;BME280;10921;53.614;9.882;2023-08-30T06:47:42;100424.38;;;18.78;74.36
21520;BME280;10921;53.614;9.882;2023-08-30T06:50:09;100422.72;;;18.84;74.43
21520;BME280;10921;53.614;9.882;2023-08-30T06:52:36;100418.56;;;18.88;73.98
21520;BME280;10921;53.614;9.882;2023-08-30T06:55:03;100416.91;;;18.87;73.17
21520;BME280;10921;53.614;9.882;2023-08-30T06:57:30;100403.81;;;18.77;73.65
21520;BME280;10921;53.614;9.882;2023-08-30T06:59:56;100410.25;;;18.89;73.96
21520;BME280;10921;53.614;9.882;2023-08-30T07:02:25;100387.16;;;18.74;73.61
21520;BME280;10921;53.614;9.882;2023-08-30T07:04:52;100388.41;;;18.78;73.26
21520;BME280;10921;53.614;9.882;2023-08-30T07:07:18;100394.00;;;18.83;73.22
21520;BME280;10921;53.614;9.882;2023-08-30T07:09:45;100417.94;;;18.99;72.92
21520;BME280;10921;53.614;9.882;2023-08-30T07:12:12;100355.34;;;18.63;73.23
21520;BME280;10921;53.614;9.882;2023-08-30T07:14:38;100416.06;;;19.00;72.80
21520;BME280;10921;53.614;9.882;2023-08-30T07:17:05;100415.88;;;19.01;72.60
21520;BME280;10921;53.614;9.882;2023-08-30T07:19:31;100413.81;;;19.03;72.85
21520;BME280;10921;53.614;9.882;2023-08-30T07:21:58;100412.53;;;18.99;73.20
21520;BME280;10921;53.614;9.882;2023-08-30T07:24:24;100395.91;;;18.89;73.27
21520;BME280;10921;53.614;9.882;2023-08-30T07:26:51;100402.56;;;19.00;72.78
21520;BME280;10921;53.614;9.882;2023-08-30T07:29:17;100431.69;;;19.17;73.46
21520;BME280;10921;53.614;9.882;2023-08-30T07:31:44;100369.91;;;18.88;73.53
21520;BME280;10921;53.614;9.882;2023-08-30T07:34:10;100423.59;;;19.24;73.61
21520;BME280;10921;53.614;9.882;2023-08-30T07:36:38;100411.31;;;19.21;72.87
21520;BME280;10921;53.614;9.882;2023-08-30T07:39:12;100409.84;;;19.25;73.15
21520;BME280;10921;53.614;9.882;2023-08-30T07:41:39;100420.06;;;19.37;72.64
21520;BME280;10921;53.614;9.882;2023-08-30T07:44:06;100425.88;;;19.47;72.49
21520;BME280;10921;53.614;9.882;2023-08-30T07:46:32;100439.41;;;19.60;72.46
21520;BME280;10921;53.614;9.882;2023-08-30T07:48:59;100429.22;;;19.69;72.75
21520;BME280;10921;53.614;9.882;2023-08-30T07:51:25;100416.91;;;19.73;71.69
21520;BME280;10921;53.614;9.882;2023-08-30T07:53:52;100426.66;;;19.87;70.68
21520;BME280;10921;53.614;9.882;2023-08-30T07:56:18;100397.53;;;19.76;70.93
21520;BME280;10921;53.614;9.882;2023-08-30T07:58:45;100437.84;;;20.10;70.72
21520;BME280;10921;53.614;9.882;2023-08-30T08:01:11;100426.81;;;20.12;70.25
21520;BME280;10921;53.614;9.882;2023-08-30T08:03:38;100434.47;;;20.21;70.38
21520;BME280;10921;53.614;9.882;2023-08-30T08:06:25;100429.66;;;20.30;69.44
21520;BME280;10921;53.614;9.882;2023-08-30T08:08:52;100385.75;;;20.08;69.95
21520;BME280;10921;53.614;9.882;2023-08-30T08:11:18;100431.66;;;20.48;70.37
21520;BME280;10921;53.614;9.882;2023-08-30T08:13:45;100415.41;;;20.48;69.40
21520;BME280;10921;53.614;9.882;2023-08-30T08:16:12;100424.75;;;20.58;68.00
21520;BME280;10921;53.614;9.882;2023-08-30T08:18:38;100436.34;;;20.72;67.88
21520;BME280;10921;53.614;9.882;2023-08-30T08:21:05;100446.09;;;20.80;67.70
21520;BME280;10921;53.614;9.882;2023-08-30T08:23:31;100437.09;;;20.86;67.24
21520;BME280;10921;53.614;9.882;2023-08-30T08:26:00;100444.13;;;20.93;66.63
21520;BME280;10921;53.614;9.882;2023-08-30T08:28:27;100440.50;;;21.06;65.23
21520;BME280;10921;53.614;9.882;2023-08-30T08:30:53;100419.84;;;21.05;65.09
21520;BME280;10921;53.614;9.882;2023-08-30T08:33:20;100436.69;;;21.14;65.42
21520;BME280;10921;53.614;9.882;2023-08-30T08:35:50;100435.94;;;21.31;64.04
21520;BME280;10921;53.614;9.882;2023-08-30T08:38:16;100396.81;;;21.14;63.82
21520;BME280;10921;53.614;9.882;2023-08-30T08:40:43;100422.03;;;21.46;63.23
21520;BME280;10921;53.614;9.882;2023-08-30T08:43:10;100433.78;;;21.65;62.95
21520;BME280;10921;53.614;9.882;2023-08-30T08:45:38;100436.56;;;21.76;62.26
21520;BME280;10921;53.614;9.882;2023-08-30T08:48:05;100423.22;;;21.75;61.74
21520;BME280;10921;53.614;9.882;2023-08-30T08:50:32;100395.84;;;21.76;62.54
21520;BME280;10921;53.614;9.882;2023-08-30T08:53:02;100447.13;;;22.09;60.44
21520;BME280;10921;53.614;9.882;2023-08-30T08:55:29;100430.50;;;22.18;60.85
21520;BME280;10921;53.614;9.882;2023-08-30T08:57:58;100427.19;;;22.16;59.11
21520;BME280;10921;53.614;9.882;2023-08-30T09:00:26;100425.44;;;22.21;58.90
21520;BME280;10921;53.614;9.882;2023-08-30T09:02:53;100406.44;;;22.21;58.89
21520;BME280;10921;53.614;9.882;2023-08-30T09:05:21;100431.94;;;22.38;57.96
21520;BME280;10921;53.614;9.882;2023-08-30T09:07:49;100416.59;;;22.44;59.08
21520;BME280;10921;53.614;9.882;2023-08-30T09:10:20;100397.34;;;22.45;57.48
21520;BME280;10921;53.614;9.882;2023-08-30T09:12:48;100437.22;;;22.82;53.86
21520;BME280;10921;53.614;9.882;2023-08-30T09:15:15;100444.34;;;22.94;53.23
21520;BME280;10921;53.614;9.882;2023-08-30T09:17:44;100440.56;;;22.95;51.76
21520;BME280;10921;53.614;9.882;2023-08-30T09:20:13;100455.63;;;23.09;50.94
21520;BME280;10921;53.614;9.882;2023-08-30T09:22:42;100435.66;;;23.15;50.95
21520;BME280;10921;53.614;9.882;2023-08-30T09:25:11;100442.66;;;23.23;51.08
21520;BME280;10921;53.614;9.882;2023-08-30T09:27:38;100440.97;;;23.22;49.59
21520;BME280;10921;53.614;9.882;2023-08-30T09:30:07;100439.47;;;23.26;49.84
21520;BME280;10921;53.614;9.882;2023-08-30T09:32:40;100438.78;;;23.31;49.78
21520;BME280;10921;53.614;9.882;2023-08-30T09:35:09;100442.31;;;23.31;50.88
21520;BME280;10921;53.614;9.882;2023-08-30T09:37:35;100438.78;;;23.31;49.47
21520;BME280;10921;53.614;9.882;2023-08-30T09:40:02;100435.69;;;23.27;49.16
21520;BME280;10921;53.614;9.882;2023-08-30T09:42:29;100433.09;;;23.32;49.76
21520;BME280;10921;53.614;9.882;2023-08-30T09:44:56;100445.63;;;23.33;49.73
21520;BME280;10921;53.614;9.882;2023-08-30T09:47:26;100428.81;;;23.25;48.87
21520;BME280;10921;53.614;9.882;2023-08-30T09:49:56;100432.25;;;23.20;48.82
21520;BME280;10921;53.614;9.882;2023-08-30T09:52:25;100409.81;;;22.95;49.39
21520;BME280;10921;53.614;9.882;2023-08-30T09:54:52;100422.88;;;23.04;49.75
21520;BME280;10921;53.614;9.882;2023-08-30T09:57:19;100387.19;;;22.83;49.77
21520;BME280;10921;53.614;9.882;2023-08-30T09:59:48;100425.38;;;23.06;50.99
21520;BME280;10921;53.614;9.882;2023-08-30T10:02:15;100364.19;;;22.67;50.18
21520;BME280;10921;53.614;9.882;2023-08-30T10:04:43;100417.78;;;23.08;50.19
21520;BME280;10921;53.614;9.882;2023-08-30T10:07:12;100411.16;;;23.04;50.98
21520;BME280;10921;53.614;9.882;2023-08-30T10:09:38;100416.38;;;23.05;50.14
21520;BME280;10921;53.614;9.882;2023-08-30T10:12:28;100366.81;;;22.73;50.22
21520;BME280;10921;53.614;9.882;2023-08-30T10:14:55;100420.03;;;23.11;49.96
21520;BME280;10921;53.614;9.882;2023-08-30T10:17:32;100399.41;;;22.92;49.52
21520;BME280;10921;53.614;9.882;2023-08-30T10:20:04;100430.44;;;23.14;49.90
21520;BME280;10921;53.614;9.882;2023-08-30T10:22:32;100423.94;;;23.15;49.30
21520;BME280;10921;53.614;9.882;2023-08-30T10:25:04;100407.75;;;23.20;49.75
21520;BME280;10921;53.614;9.882;2023-08-30T10:27:41;100385.72;;;23.10;50.02
21520;BME280;10921;53.614;9.882;2023-08-30T10:30:11;100394.00;;;23.27;49.67
21520;BME280;10921;53.614;9.882;2023-08-30T10:32:39;100360.75;;;23.13;49.38
21520;BME280;10921;53.614;9.882;2023-08-30T10:35:06;100420.44;;;23.49;47.94
21520;BME280;10921;53.614;9.882;2023-08-30T10:37:34;100406.84;;;23.61;49.97
21520;BME280;10921;53.614;9.882;2023-08-30T10:40:03;100381.72;;;23.47;49.92
21520;BME280;10921;53.614;9.882;2023-08-30T10:42:30;100359.94;;;23.47;49.16
21520;BME280;10921;53.614;9.882;2023-08-30T10:44:59;100406.69;;;23.91;49.62
21520;BME280;10921;53.614;9.882;2023-08-30T10:47:30;100399.31;;;24.03;50.89
21520;BME280;10921;53.614;9.882;2023-08-30T10:49:58;100414.81;;;24.14;48.23
21520;BME280;10921;53.614;9.882;2023-08-30T10:52:28;100404.84;;;24.32;48.19
21520;BME280;10921;53.614;9.882;2023-08-30T10:55:05;100395.66;;;24.49;47.86
21520;BME280;10921;53.614;9.882;2023-08-30T10:57:33;100397.00;;;24.64;46.68
21520;BME280;10921;53.614;9.882;2023-08-30T11:00:10;100412.94;;;24.83;47.47
21520;BME280;10921;53.614;9.882;2023-08-30T11:02:38;100406.50;;;24.89;45.59
21520;BME280;10921;53.614;9.882;2023-08-30T11:05:08;100392.47;;;24.98;45.89
21520;BME280;10921;53.614;9.882;2023-08-30T11:07:35;100366.63;;;24.72;44.86
21520;BME280;10921;53.614;9.882;2023-08-30T11:10:05;100363.66;;;24.73;45.33
21520;BME280;10921;53.614;9.882;2023-08-30T11:12:33;100392.41;;;24.81;44.82
21520;BME280;10921;53.614;9.882;2023-08-30T11:15:00;100400.59;;;24.81;45.48
21520;BME280;10921;53.614;9.882;2023-08-30T11:17:27;100347.88;;;24.47;45.95
21520;BME280;10921;53.614;9.882;2023-08-30T11:20:07;100398.19;;;24.68;44.23
21520;BME280;10921;53.614;9.882;2023-08-30T11:22:47;100381.63;;;24.58;46.13
21520;BME280;10921;53.614;9.882;2023-08-30T11:25:15;100396.34;;;24.57;45.32
21520;BME280;10921;53.614;9.882;2023-08-30T11:27:42;100399.44;;;24.48;46.20
21520;BME280;10921;53.614;9.882;2023-08-30T11:30:10;100351.41;;;24.19;46.51
21520;BME280;10921;53.614;9.882;2023-08-30T11:32:41;100357.84;;;24.13;46.01
21520;BME280;10921;53.614;9.882;2023-08-30T11:35:11;100382.13;;;24.26;46.47
21520;BME280;10921;53.614;9.882;2023-08-30T11:37:37;100352.75;;;24.05;46.59
21520;BME280;10921;53.614;9.882;2023-08-30T11:40:06;100379.88;;;24.23;47.14
21520;BME280;10921;53.614;9.882;2023-08-30T11:42:33;100367.56;;;24.09;46.51
21520;BME280;10921;53.614;9.882;2023-08-30T11:45:00;100368.97;;;24.11;46.31
21520;BME280;10921;53.614;9.882;2023-08-30T11:47:28;100297.28;;;23.71;47.78
21520;BME280;10921;53.614;9.882;2023-08-30T11:49:57;100367.06;;;24.24;48.53
21520;BME280;10921;53.614;9.882;2023-08-30T11:52:25;100367.19;;;24.29;47.06
21520;BME280;10921;53.614;9.882;2023-08-30T11:54:52;100326.28;;;24.17;48.35
21520;BME280;10921;53.614;9.882;2023-08-30T11:57:19;100351.72;;;24.34;47.38
21520;BME280;10921;53.614;9.882;2023-08-30T11:59:47;100327.22;;;24.23;46.46
21520;BME280;10921;53.614;9.882;2023-08-30T12:02:16;100352.66;;;24.40;46.25
21520;BME280;10921;53.614;9.882;2023-08-30T12:04:44;100344.13;;;24.36;45.96
21520;BME280;10921;53.614;9.882;2023-08-30T12:07:22;100347.22;;;24.40;46.36
21520;BME280;10921;53.614;9.882;2023-08-30T12:09:49;100342.38;;;24.30;47.07
21520;BME280;10921;53.614;9.882;2023-08-30T12:12:16;100350.81;;;24.29;46.66
21520;BME280;10921;53.614;9.882;2023-08-30T12:14:43;100340.97;;;24.16;47.71
21520;BME280;10921;53.614;9.882;2023-08-30T12:17:09;100349.03;;;24.23;46.64
21520;BME280;10921;53.614;9.882;2023-08-30T12:19:38;100307.66;;;23.97;46.36
21520;BME280;10921;53.614;9.882;2023-08-30T12:22:08;100340.72;;;24.17;47.48
21520;BME280;10921;53.614;9.882;2023-08-30T12:24:44;100341.09;;;24.21;47.06
21520;BME280;10921;53.614;9.882;2023-08-30T12:27:11;100324.84;;;24.14;46.89
21520;BME280;10921;53.614;9.882;2023-08-30T12:29:38;100321.97;;;24.33;46.54
21520;BME280;10921;53.614;9.882;2023-08-30T12:32:05;100312.41;;;24.47;45.42
21520;BME280;10921;53.614;9.882;2023-08-30T12:34:31;100314.53;;;24.73;46.30
21520;BME280;10921;53.614;9.882;2023-08-30T12:36:58;100246.13;;;24.46;44.54
21520;BME280;10921;53.614;9.882;2023-08-30T12:39:29;100322.47;;;25.08;45.91
21520;BME280;10921;53.614;9.882;2023-08-30T12:41:56;100315.53;;;25.17;45.42
21520;BME280;10921;53.614;9.882;2023-08-30T12:44:23;100292.94;;;25.22;45.18
21520;BME280;10921;53.614;9.882;2023-08-30T12:46:49;100319.78;;;25.47;44.53
21520;BME280;10921;53.614;9.882;2023-08-30T12:49:16;100313.53;;;25.68;43.78
21520;BME280;10921;53.614;9.882;2023-08-30T12:51:42;100282.25;;;25.59;42.39
21520;BME280;10921;53.614;9.882;2023-08-30T12:54:09;100288.13;;;25.68;42.16